createdAt,value
2018-12-17T00:00:30.091Z,68.10
2018-12-17T00:01:30.088Z,68.90
2018-12-17T00:02:30.098Z,63.10
2018-12-17T00:03:30.096Z,63.90
2018-12-17T00:04:30.066Z,76.20
2018-12-17T00:05:30.599Z,54.90
2018-12-17T00:06:30.037Z,98.10
2018-12-17T00:07:30.047Z,72.00
2018-12-17T00:08:32.166Z,62.40
2018-12-17T00:09:30.033Z,62.70
2018-12-17T00:10:29.988Z,54.90
2018-12-17T00:11:29.972Z,61.80
2018-12-17T00:12:29.957Z,69.40
2018-12-17T00:13:30.006Z,71.90
2018-12-17T00:14:29.951Z,58.90
2018-12-17T00:15:29.937Z,68.40
2018-12-17T00:16:29.925Z,67.80
2018-12-17T00:17:29.922Z,60.50
2018-12-17T00:18:29.917Z,66.60
2018-12-17T00:19:29.908Z,63.10
2018-12-17T00:20:29.923Z,62.70
2018-12-17T00:21:29.861Z,61.30
2018-12-17T00:22:29.862Z,56.00
2018-12-17T00:23:29.865Z,53.00
2018-12-17T00:24:29.850Z,61.20
2018-12-17T00:25:29.819Z,49.00
2018-12-17T00:26:29.809Z,50.30
2018-12-17T00:27:29.801Z,50.40
2018-12-17T00:28:29.818Z,51.90
2018-12-17T00:29:29.806Z,59.10
2018-12-17T00:30:29.763Z,51.40
2018-12-17T00:31:29.752Z,50.20
2018-12-17T00:32:29.758Z,44.90
2018-12-17T00:33:29.759Z,44.80
2018-12-17T00:34:29.728Z,44.20
2018-12-17T00:35:29.704Z,45.90
2018-12-17T00:36:29.694Z,47.50
2018-12-17T00:37:29.702Z,55.40
2018-12-17T00:38:29.704Z,55.60
2018-12-17T00:39:29.666Z,47.90
2018-12-17T00:40:29.663Z,45.00
2018-12-17T00:41:29.644Z,46.10
2018-12-17T00:42:29.677Z,47.00
2018-12-17T00:43:29.619Z,49.60
2018-12-17T00:44:29.615Z,56.40
2018-12-17T00:45:29.675Z,50.90
2018-12-17T00:46:29.587Z,53.10
2018-12-17T00:47:29.580Z,54.50
2018-12-17T00:48:29.577Z,49.40
2018-12-17T00:49:29.566Z,47.70
2018-12-17T00:50:29.577Z,47.90
2018-12-17T00:51:29.622Z,49.50
2018-12-17T00:52:29.520Z,55.60
2018-12-17T00:53:29.520Z,50.30
2018-12-17T00:54:29.502Z,48.20
2018-12-17T00:55:29.487Z,49.40
2018-12-17T00:56:29.497Z,53.00
2018-12-17T00:57:29.539Z,54.90
2018-12-17T00:58:29.477Z,52.90
2018-12-17T00:59:29.446Z,54.90
2018-12-17T01:00:29.430Z,53.70
2018-12-17T01:01:29.459Z,53.70
2018-12-17T01:02:29.453Z,50.40
2018-12-17T01:03:29.396Z,45.20
2018-12-17T01:04:29.386Z,48.30
2018-12-17T01:05:29.386Z,48.80
2018-12-17T01:06:29.366Z,52.10
2018-12-17T01:07:29.379Z,53.50
2018-12-17T01:08:29.357Z,48.80
2018-12-17T01:09:29.339Z,50.70
2018-12-17T01:10:29.320Z,54.10
2018-12-17T01:11:29.315Z,51.20
2018-12-17T01:12:29.324Z,70.20
2018-12-17T01:13:29.293Z,52.30
2018-12-17T01:14:29.292Z,48.30
2018-12-17T01:15:29.274Z,45.00
2018-12-17T01:16:29.280Z,50.70
2018-12-17T01:17:29.260Z,43.80
2018-12-17T01:18:29.274Z,41.70
2018-12-17T01:19:29.223Z,44.80
2018-12-17T01:20:29.219Z,39.10
2018-12-17T01:21:29.206Z,43.20
2018-12-17T01:22:29.194Z,41.60
2018-12-17T01:23:29.214Z,47.80
2018-12-17T01:24:29.181Z,40.30
2018-12-17T01:25:29.185Z,41.10
2018-12-17T01:26:29.149Z,45.50
2018-12-17T01:27:29.141Z,43.20
2018-12-17T01:28:29.123Z,45.10
2018-12-17T01:29:29.128Z,44.50
2018-12-17T01:30:29.129Z,47.00
2018-12-17T01:31:29.095Z,43.60
2018-12-17T01:32:29.097Z,50.60
2018-12-17T01:33:29.072Z,45.40
2018-12-17T01:34:29.064Z,44.50
2018-12-17T01:35:29.076Z,45.10
2018-12-17T01:36:29.047Z,42.80
2018-12-17T01:37:29.025Z,50.70
2018-12-17T01:38:29.014Z,43.90
2018-12-17T01:39:29.054Z,43.10
2018-12-17T01:40:29.017Z,47.10
2018-12-17T01:41:28.991Z,42.00
2018-12-17T01:42:29.001Z,47.00
2018-12-17T01:43:28.957Z,44.40
2018-12-17T01:44:28.975Z,42.40
2018-12-17T01:45:28.951Z,44.30
2018-12-17T01:46:28.927Z,47.70
2018-12-17T01:47:28.981Z,42.90
2018-12-17T01:48:28.907Z,41.80
2018-12-17T01:49:28.928Z,43.40
2018-12-17T01:50:28.907Z,45.30
2018-12-17T01:51:28.871Z,51.30
2018-12-17T01:52:28.891Z,45.00
2018-12-17T01:53:28.850Z,43.00
2018-12-17T01:54:28.872Z,48.20
2018-12-17T01:55:28.829Z,49.80
2018-12-17T01:56:28.815Z,56.00
2018-12-17T01:57:28.807Z,61.20
2018-12-17T01:58:29.322Z,89.80
2018-12-17T01:59:28.785Z,60.50
2018-12-17T02:00:28.777Z,111.50
2018-12-17T02:01:28.767Z,85.50
2018-12-17T02:02:28.757Z,77.10
2018-12-17T02:03:28.783Z,78.30
2018-12-17T02:04:28.747Z,72.10
2018-12-17T02:05:28.728Z,225.80
2018-12-17T02:06:28.708Z,70.80
2018-12-17T02:07:28.726Z,285.00
2018-12-17T02:08:28.739Z,198.40
2018-12-17T02:09:28.698Z,128.10
2018-12-17T02:10:28.662Z,291.20
2018-12-17T02:11:28.714Z,424.20
2018-12-17T02:12:28.663Z,95.50
2018-12-17T02:13:28.632Z,88.10
2018-12-17T02:14:28.618Z,149.50
2018-12-17T02:15:28.616Z,219.90
2018-12-17T02:16:28.623Z,361.60
2018-12-17T02:17:28.597Z,164.00
2018-12-17T02:18:28.584Z,142.50
2018-12-17T02:19:28.628Z,74.70
2018-12-17T02:20:28.550Z,71.60
2018-12-17T02:21:28.543Z,143.10
2018-12-17T02:22:28.539Z,174.00
2018-12-17T02:23:28.527Z,153.90
2018-12-17T02:24:28.556Z,154.60
2018-12-17T02:25:28.513Z,86.80
2018-12-17T02:26:28.492Z,220.40
2018-12-17T02:27:28.472Z,191.30
2018-12-17T02:28:28.505Z,101.30
2018-12-17T02:29:28.503Z,96.40
2018-12-17T02:30:28.444Z,90.00
2018-12-17T02:31:28.439Z,70.80
2018-12-17T02:32:28.423Z,77.70
2018-12-17T02:33:28.409Z,83.90
2018-12-17T02:34:28.465Z,139.60
2018-12-17T02:35:28.386Z,141.40
2018-12-17T02:36:28.373Z,179.20
2018-12-17T02:37:28.396Z,118.70
2018-12-17T02:38:28.360Z,169.40
2018-12-17T02:39:28.353Z,144.00
2018-12-17T02:40:28.362Z,108.00
2018-12-17T02:41:28.331Z,88.70
2018-12-17T02:42:28.343Z,95.10
2018-12-17T02:43:28.303Z,142.60
2018-12-17T02:44:28.294Z,69.60
2018-12-17T02:45:28.291Z,135.30
2018-12-17T02:46:28.291Z,90.50
2018-12-17T02:47:28.260Z,89.90
2018-12-17T02:48:28.269Z,81.20
2018-12-17T02:49:28.242Z,80.90
2018-12-17T02:50:28.232Z,109.80
2018-12-17T02:51:28.208Z,122.00
2018-12-17T02:52:28.224Z,68.60
2018-12-17T02:53:28.216Z,79.20
2018-12-17T02:54:28.176Z,151.50
2018-12-17T02:55:28.166Z,66.60
2018-12-17T02:56:28.159Z,93.90
2018-12-17T02:57:28.169Z,66.50
2018-12-17T02:58:28.175Z,67.30
2018-12-17T02:59:28.138Z,66.10
2018-12-17T03:00:28.127Z,74.30
2018-12-17T03:01:28.111Z,79.80
2018-12-17T03:02:28.114Z,75.20
2018-12-17T03:03:28.091Z,107.40
2018-12-17T03:04:28.069Z,82.20
2018-12-17T03:05:28.053Z,72.70
2018-12-17T03:06:28.047Z,136.10
2018-12-17T03:07:28.066Z,95.50
2018-12-17T03:08:28.028Z,141.30
2018-12-17T03:09:28.022Z,207.10
2018-12-17T03:10:28.000Z,136.40
2018-12-17T03:11:28.004Z,269.90
2018-12-17T03:12:28.006Z,262.30
2018-12-17T03:13:27.984Z,327.90
2018-12-17T03:14:27.977Z,490.30
2018-12-17T03:15:27.948Z,345.70
2018-12-17T03:16:27.962Z,365.40
2018-12-17T03:17:27.956Z,278.80
2018-12-17T03:18:27.927Z,290.30
2018-12-17T03:19:27.908Z,305.40
2018-12-17T03:20:27.890Z,301.30
2018-12-17T03:21:27.878Z,375.20
2018-12-17T03:22:27.930Z,246.70
2018-12-17T03:23:27.873Z,249.30
2018-12-17T03:24:27.865Z,291.50
2018-12-17T03:25:27.860Z,251.20
2018-12-17T03:26:27.825Z,237.10
2018-12-17T03:27:27.816Z,232.60
2018-12-17T03:28:27.846Z,199.10
2018-12-17T03:29:27.791Z,171.90
2018-12-17T03:30:27.792Z,189.70
2018-12-17T03:31:27.771Z,228.80
2018-12-17T03:32:27.760Z,178.30
2018-12-17T03:33:27.776Z,146.60
2018-12-17T03:34:27.738Z,140.30
2018-12-17T03:35:27.765Z,117.30
2018-12-17T03:36:27.715Z,80.50
2018-12-17T03:37:27.705Z,117.20
2018-12-17T03:38:27.706Z,142.90
2018-12-17T03:39:27.689Z,144.20
2018-12-17T03:40:27.721Z,82.40
2018-12-17T03:41:27.706Z,95.70
2018-12-17T03:42:27.649Z,83.50
2018-12-17T03:43:27.650Z,85.20
2018-12-17T03:44:27.636Z,100.50
2018-12-17T03:45:27.629Z,109.00
2018-12-17T03:46:27.643Z,82.50
2018-12-17T03:47:27.654Z,90.20
2018-12-17T03:48:27.616Z,98.40
2018-12-17T03:49:27.599Z,80.20
2018-12-17T03:50:27.564Z,65.00
2018-12-17T03:51:27.600Z,72.00
2018-12-17T03:52:27.555Z,65.80
2018-12-17T03:53:27.568Z,61.40
2018-12-17T03:54:27.528Z,65.60
2018-12-17T03:55:27.504Z,66.80
2018-12-17T03:56:27.529Z,58.80
2018-12-17T03:57:27.510Z,59.90
2018-12-17T03:58:27.481Z,58.30
2018-12-17T03:59:27.475Z,72.20
2018-12-17T04:00:27.459Z,59.40
2018-12-17T04:01:27.444Z,74.50
2018-12-17T04:02:27.465Z,55.90
2018-12-17T04:03:27.421Z,50.50
2018-12-17T04:04:27.426Z,45.70
2018-12-17T04:05:27.407Z,49.60
2018-12-17T04:06:27.431Z,54.30
2018-12-17T04:07:27.393Z,50.30
2018-12-17T04:08:27.374Z,51.30
2018-12-17T04:09:27.361Z,56.60
2018-12-17T04:10:27.361Z,61.70
2018-12-17T04:11:27.394Z,48.30
2018-12-17T04:12:27.324Z,48.60
2018-12-17T04:13:27.320Z,46.00
2018-12-17T04:14:27.299Z,42.10
2018-12-17T04:15:27.340Z,48.20
2018-12-17T04:16:27.310Z,39.40
2018-12-17T04:17:27.277Z,41.00
2018-12-17T04:18:27.292Z,47.90
2018-12-17T04:19:27.264Z,45.20
2018-12-17T04:20:27.239Z,47.40
2018-12-17T04:21:27.250Z,43.90
2018-12-17T04:22:27.218Z,42.80
2018-12-17T04:23:27.214Z,43.90
2018-12-17T04:24:27.197Z,49.60
2018-12-17T04:25:27.226Z,40.70
2018-12-17T04:26:27.182Z,38.20
2018-12-17T04:27:27.160Z,43.20
2018-12-17T04:28:27.187Z,44.60
2018-12-17T04:29:27.180Z,41.80
2018-12-17T04:30:27.130Z,44.90
2018-12-17T04:31:27.669Z,42.50
2018-12-17T04:32:27.102Z,38.10
2018-12-17T04:33:27.111Z,38.30
2018-12-17T04:34:27.142Z,37.70
2018-12-17T04:35:27.071Z,40.10
2018-12-17T04:36:27.063Z,38.80
2018-12-17T04:37:27.097Z,39.70
2018-12-17T04:38:27.041Z,39.50
2018-12-17T04:39:27.062Z,41.40
2018-12-17T04:40:27.019Z,39.30
2018-12-17T04:41:27.023Z,35.10
2018-12-17T04:42:27.037Z,35.90
2018-12-17T04:43:27.011Z,37.40
2018-12-17T04:44:26.991Z,33.50
2018-12-17T04:45:26.967Z,34.10
2018-12-17T04:46:26.987Z,30.50
2018-12-17T04:47:27.063Z,32.30
2018-12-17T04:48:26.937Z,33.10
2018-12-17T04:49:26.918Z,31.10
2018-12-17T04:50:27.180Z,32.50
2018-12-17T04:51:26.942Z,34.60
2018-12-17T04:52:26.896Z,32.70
2018-12-17T04:53:26.875Z,34.70
2018-12-17T04:54:26.880Z,35.70
2018-12-17T04:55:26.897Z,34.60
2018-12-17T04:56:26.868Z,34.00
2018-12-17T04:57:26.831Z,35.60
2018-12-17T04:58:26.855Z,33.20
2018-12-17T04:59:26.839Z,29.80
2018-12-17T05:00:26.836Z,34.20
2018-12-17T05:01:26.815Z,32.60
2018-12-17T05:02:26.781Z,31.30
2018-12-17T05:03:26.778Z,30.90
2018-12-17T05:04:26.801Z,31.80
2018-12-17T05:05:26.748Z,32.70
2018-12-17T05:06:26.739Z,32.10
2018-12-17T05:07:26.726Z,31.50
2018-12-17T05:08:26.720Z,29.30
2018-12-17T05:09:26.726Z,30.50
2018-12-17T05:10:26.707Z,29.50
2018-12-17T05:11:26.702Z,29.90
2018-12-17T05:12:26.672Z,28.30
2018-12-17T05:13:26.675Z,28.90
2018-12-17T05:14:26.670Z,30.50
2018-12-17T05:15:26.672Z,26.60
2018-12-17T05:16:26.625Z,27.60
2018-12-17T05:17:26.623Z,30.50
2018-12-17T05:18:26.606Z,28.70
2018-12-17T05:19:26.648Z,26.90
2018-12-17T05:20:26.581Z,29.20
2018-12-17T05:21:26.581Z,27.70
2018-12-17T05:22:26.564Z,28.00
2018-12-17T05:23:26.565Z,33.20
2018-12-17T05:24:26.571Z,29.30
2018-12-17T05:25:26.531Z,29.40
2018-12-17T05:26:26.518Z,29.90
2018-12-17T05:27:26.503Z,29.20
2018-12-17T05:28:26.493Z,30.20
2018-12-17T05:29:26.509Z,32.10
2018-12-17T05:30:26.499Z,31.10
2018-12-17T05:31:26.476Z,30.10
2018-12-17T05:32:26.448Z,31.00
2018-12-17T05:33:26.444Z,28.70
2018-12-17T05:34:26.439Z,30.30
2018-12-17T05:35:26.455Z,29.40
2018-12-17T05:36:26.409Z,28.50
2018-12-17T05:37:26.406Z,28.50
2018-12-17T05:38:26.400Z,32.00
2018-12-17T05:39:26.380Z,30.10
2018-12-17T05:40:26.390Z,26.40
2018-12-17T05:41:26.352Z,29.60
2018-12-17T05:42:26.340Z,28.90
2018-12-17T05:43:26.331Z,29.50
2018-12-17T05:44:26.353Z,29.50
2018-12-17T05:45:26.453Z,29.30
2018-12-17T05:46:26.335Z,29.00
2018-12-17T05:47:26.300Z,28.70
2018-12-17T05:48:26.275Z,30.00
2018-12-17T05:49:26.265Z,29.30
2018-12-17T05:50:26.284Z,32.20
2018-12-17T05:51:26.251Z,27.00
2018-12-17T05:52:26.240Z,27.80
2018-12-17T05:53:26.240Z,27.90
2018-12-17T05:54:26.241Z,28.30
2018-12-17T05:55:26.206Z,30.10
2018-12-17T05:56:26.242Z,28.10
2018-12-17T05:57:26.194Z,27.70
2018-12-17T05:58:26.204Z,29.00
2018-12-17T05:59:28.663Z,25.80
2018-12-17T06:00:26.187Z,26.00
2018-12-17T06:01:26.162Z,25.70
2018-12-17T06:02:26.156Z,26.40
2018-12-17T06:03:26.119Z,23.40
2018-12-17T06:04:26.109Z,28.20
2018-12-17T06:05:26.105Z,25.00
2018-12-17T06:06:26.116Z,24.60
2018-12-17T06:07:26.077Z,24.30
2018-12-17T06:08:26.154Z,28.90
2018-12-17T06:09:26.153Z,27.60
2018-12-17T06:10:26.149Z,24.10
2018-12-17T06:11:27.501Z,26.20
2018-12-17T06:12:26.132Z,26.70
2018-12-17T06:13:26.007Z,26.40
2018-12-17T06:14:25.996Z,27.30
2018-12-17T06:15:25.990Z,25.40
2018-12-17T06:16:26.058Z,27.90
2018-12-17T06:17:25.965Z,26.60
2018-12-17T06:18:25.954Z,27.50
2018-12-17T06:19:25.955Z,25.90
2018-12-17T06:20:25.931Z,27.90
2018-12-17T06:21:25.969Z,28.70
2018-12-17T06:22:25.917Z,28.20
2018-12-17T06:23:25.914Z,26.60
2018-12-17T06:24:25.887Z,26.70
2018-12-17T06:25:25.906Z,26.10
2018-12-17T06:26:25.895Z,28.40
2018-12-17T06:27:25.899Z,29.70
2018-12-17T06:28:25.849Z,28.60
2018-12-17T06:29:25.836Z,23.80
2018-12-17T06:30:25.824Z,25.90
2018-12-17T06:31:25.833Z,24.40
2018-12-17T06:32:25.827Z,23.30
2018-12-17T06:33:25.791Z,25.20
2018-12-17T06:34:25.780Z,28.80
2018-12-17T06:35:25.769Z,25.30
2018-12-17T06:36:25.793Z,22.30
2018-12-17T06:37:25.777Z,23.90
2018-12-17T06:38:25.770Z,24.50
2018-12-17T06:39:25.726Z,24.70
2018-12-17T06:40:25.722Z,23.90
2018-12-17T06:41:25.771Z,24.90
2018-12-17T06:42:25.696Z,25.20
2018-12-17T06:43:25.710Z,23.20
2018-12-17T06:44:25.670Z,25.00
2018-12-17T06:45:25.830Z,21.40
2018-12-17T06:46:25.705Z,23.90
2018-12-17T06:47:25.637Z,24.90
2018-12-17T06:48:25.628Z,25.40
2018-12-17T06:49:25.693Z,27.70
2018-12-17T06:50:25.623Z,25.70
2018-12-17T06:51:25.607Z,25.50
2018-12-17T06:52:25.582Z,24.50
2018-12-17T06:53:25.650Z,24.60
2018-12-17T06:54:25.590Z,25.50
2018-12-17T06:55:25.557Z,27.40
2018-12-17T06:56:25.559Z,27.30
2018-12-17T06:57:25.526Z,27.10
2018-12-17T06:58:25.522Z,27.80
2018-12-17T06:59:25.607Z,24.10
2018-12-17T07:00:25.525Z,25.60
2018-12-17T07:01:25.536Z,25.50
2018-12-17T07:02:25.507Z,25.20
2018-12-17T07:03:25.465Z,24.60
2018-12-17T07:04:25.497Z,29.20
2018-12-17T07:05:25.442Z,24.50
2018-12-17T07:06:25.947Z,23.60
2018-12-17T07:07:25.479Z,23.40
2018-12-17T07:08:25.415Z,28.00
2018-12-17T07:09:25.464Z,23.00
2018-12-17T07:10:25.413Z,31.90
2018-12-17T07:11:25.391Z,28.30
2018-12-17T07:12:25.395Z,26.90
2018-12-17T07:13:25.382Z,29.30
2018-12-17T07:14:25.358Z,28.80
2018-12-17T07:15:25.402Z,29.60
2018-12-17T07:16:25.344Z,31.50
2018-12-17T07:17:25.343Z,32.10
2018-12-17T07:18:25.344Z,29.30
2018-12-17T07:19:25.293Z,27.70
2018-12-17T07:20:25.358Z,33.20
2018-12-17T07:21:25.269Z,25.60
2018-12-17T07:22:25.270Z,27.50
2018-12-17T07:23:25.273Z,26.90
2018-12-17T07:24:25.235Z,30.00
2018-12-17T07:25:25.248Z,30.50
2018-12-17T07:26:25.215Z,28.20
2018-12-17T07:27:25.210Z,27.10
2018-12-17T07:28:25.212Z,31.40
2018-12-17T07:29:25.219Z,30.50
2018-12-17T07:30:25.184Z,31.00
2018-12-17T07:31:25.168Z,28.00
2018-12-17T07:32:25.167Z,26.20
2018-12-17T07:33:25.157Z,27.70
2018-12-17T07:34:25.238Z,29.50
2018-12-17T07:35:25.298Z,32.20
2018-12-17T07:36:25.101Z,30.10
2018-12-17T07:37:25.123Z,32.70
2018-12-17T07:38:25.082Z,31.60
2018-12-17T07:39:25.096Z,33.00
2018-12-17T07:40:25.063Z,32.40
2018-12-17T07:41:25.054Z,29.00
2018-12-17T07:42:25.040Z,33.60
2018-12-17T07:43:25.029Z,31.70
2018-12-17T07:44:25.048Z,34.20
2018-12-17T07:45:25.005Z,34.00
2018-12-17T07:46:24.993Z,31.30
2018-12-17T07:47:24.983Z,31.00
2018-12-17T07:48:24.975Z,30.10
2018-12-17T07:49:25.265Z,29.70
2018-12-17T07:50:24.958Z,28.70
2018-12-17T07:51:24.957Z,26.00
2018-12-17T07:52:24.974Z,26.40
2018-12-17T07:53:24.938Z,26.40
2018-12-17T07:54:24.931Z,25.90
2018-12-17T07:55:24.940Z,26.60
2018-12-17T07:56:24.888Z,29.80
2018-12-17T07:57:24.915Z,25.10
2018-12-17T07:58:24.872Z,27.00
2018-12-17T07:59:24.852Z,28.60
2018-12-17T08:00:24.906Z,27.60
2018-12-17T08:01:24.829Z,27.10
2018-12-17T08:02:24.821Z,25.40
2018-12-17T08:03:24.809Z,24.70
2018-12-17T08:04:24.803Z,27.90
2018-12-17T08:05:24.810Z,22.90
2018-12-17T08:06:24.792Z,24.90
2018-12-17T08:07:24.779Z,27.10
2018-12-17T08:08:24.753Z,30.40
2018-12-17T08:09:24.800Z,27.10
2018-12-17T08:10:24.736Z,32.80
2018-12-17T08:11:24.753Z,27.80
2018-12-17T08:12:24.734Z,27.90
2018-12-17T08:13:24.711Z,28.20
2018-12-17T08:14:24.693Z,29.20
2018-12-17T08:15:24.710Z,25.40
2018-12-17T08:16:24.696Z,26.10
2018-12-17T08:17:24.662Z,27.50
2018-12-17T08:18:24.667Z,26.40
2018-12-17T08:19:24.647Z,27.20
2018-12-17T08:20:24.647Z,27.20
2018-12-17T08:21:24.615Z,25.50
2018-12-17T08:22:24.607Z,28.70
2018-12-17T08:23:24.591Z,29.60
2018-12-17T08:24:24.594Z,26.60
2018-12-17T08:25:24.613Z,26.10
2018-12-17T08:26:24.556Z,27.20
2018-12-17T08:27:24.549Z,29.20
2018-12-17T08:28:24.617Z,25.40
2018-12-17T08:29:24.527Z,26.70
2018-12-17T08:30:24.561Z,33.10
2018-12-17T08:31:24.505Z,28.10
2018-12-17T08:32:24.493Z,29.50
2018-12-17T08:33:24.485Z,30.20
2018-12-17T08:34:24.470Z,26.90
2018-12-17T08:35:24.484Z,26.50
2018-12-17T08:36:24.454Z,28.60
2018-12-17T08:37:24.450Z,28.80
2018-12-17T08:38:24.502Z,33.00
2018-12-17T08:39:24.422Z,29.20
2018-12-17T08:40:24.427Z,28.90
2018-12-17T08:41:24.391Z,31.10
2018-12-17T08:42:24.399Z,30.40
2018-12-17T08:43:24.422Z,33.30
2018-12-17T08:44:24.359Z,31.30
2018-12-17T08:45:24.380Z,40.10
2018-12-17T08:46:24.358Z,36.70
2018-12-17T08:47:24.333Z,33.30
2018-12-17T08:48:24.325Z,30.00
2018-12-17T08:49:24.305Z,34.30
2018-12-17T08:50:24.348Z,29.90
2018-12-17T08:51:24.338Z,31.20
2018-12-17T08:52:24.279Z,29.80
2018-12-17T08:53:24.300Z,32.80
2018-12-17T08:54:24.268Z,34.90
2018-12-17T08:55:24.252Z,33.40
2018-12-17T08:56:24.232Z,33.30
2018-12-17T08:57:24.225Z,39.40
2018-12-17T08:58:24.247Z,34.70
2018-12-17T08:59:24.207Z,35.40
2018-12-17T09:00:24.188Z,33.30
2018-12-17T09:01:24.186Z,33.10
2018-12-17T09:02:24.163Z,34.60
2018-12-17T09:03:24.184Z,34.40
2018-12-17T09:04:24.143Z,34.50
2018-12-17T09:05:24.151Z,34.10
2018-12-17T09:06:24.121Z,35.80
2018-12-17T09:07:24.120Z,29.40
2018-12-17T09:08:24.138Z,29.50
2018-12-17T09:09:24.112Z,27.80
2018-12-17T09:10:24.079Z,32.10
2018-12-17T09:11:24.118Z,35.00
2018-12-17T09:12:24.095Z,32.60
2018-12-17T09:13:24.072Z,32.50
2018-12-17T09:14:24.048Z,29.70
2018-12-17T09:15:24.093Z,31.90
2018-12-17T09:16:24.010Z,30.60
2018-12-17T09:17:24.028Z,26.50
2018-12-17T09:18:23.988Z,25.00
2018-12-17T09:19:23.981Z,27.40
2018-12-17T09:20:23.975Z,29.00
2018-12-17T09:21:23.996Z,27.70
2018-12-17T09:22:23.951Z,29.70
2018-12-17T09:23:23.953Z,31.10
2018-12-17T09:24:23.929Z,27.70
2018-12-17T09:25:23.966Z,27.10
2018-12-17T09:26:23.978Z,25.20
2018-12-17T09:27:23.897Z,27.50
2018-12-17T09:28:23.893Z,27.10
2018-12-17T09:29:23.880Z,28.50
2018-12-17T09:30:23.951Z,28.80
2018-12-17T09:31:23.874Z,25.80
2018-12-17T09:32:23.842Z,26.80
2018-12-17T09:33:23.830Z,25.50
2018-12-17T09:34:23.819Z,21.50
2018-12-17T09:35:23.808Z,23.20
2018-12-17T09:36:23.827Z,23.80
2018-12-17T09:37:23.849Z,21.90
2018-12-17T09:38:23.801Z,21.70
2018-12-17T09:39:23.771Z,24.60
2018-12-17T09:40:23.763Z,27.20
2018-12-17T09:41:23.816Z,24.90
2018-12-17T09:42:23.938Z,25.30
2018-12-17T09:43:24.243Z,21.90
2018-12-17T09:44:23.719Z,21.30
2018-12-17T09:45:23.721Z,24.90
2018-12-17T09:46:23.736Z,24.70
2018-12-17T09:47:23.688Z,23.20
2018-12-17T09:48:23.688Z,20.70
2018-12-17T09:49:23.664Z,24.20
2018-12-17T09:50:23.674Z,23.70
2018-12-17T09:51:23.668Z,28.50
2018-12-17T09:52:23.637Z,21.20
2018-12-17T09:53:23.651Z,21.80
2018-12-17T09:54:23.626Z,20.90
2018-12-17T09:55:23.627Z,20.90
2018-12-17T09:56:23.600Z,21.70
2018-12-17T09:57:23.585Z,23.80
2018-12-17T09:58:23.603Z,20.80
2018-12-17T09:59:23.565Z,21.20
2018-12-17T10:00:25.620Z,20.00
2018-12-17T10:01:23.543Z,19.00
2018-12-17T10:02:23.537Z,20.10
2018-12-17T10:03:23.551Z,21.10
2018-12-17T10:04:23.508Z,16.80
2018-12-17T10:05:23.502Z,16.50
2018-12-17T10:06:23.492Z,16.70
2018-12-17T10:07:30.310Z,15.40
2018-12-17T10:08:24.528Z,15.90
2018-12-17T10:09:23.462Z,17.20
2018-12-17T10:10:23.452Z,19.40
2018-12-17T10:11:23.573Z,17.00
2018-12-17T10:12:23.468Z,18.00
2018-12-17T10:13:23.595Z,19.40
2018-12-17T10:14:23.405Z,18.20
2018-12-17T10:15:23.398Z,17.30
2018-12-17T10:16:23.388Z,17.50
2018-12-17T10:17:23.387Z,16.60
2018-12-17T10:18:23.400Z,16.20
2018-12-17T10:19:23.431Z,18.20
2018-12-17T10:20:23.345Z,14.90
2018-12-17T10:21:23.344Z,18.70
2018-12-17T10:22:23.366Z,16.30
2018-12-17T10:23:23.317Z,17.40
2018-12-17T10:24:23.317Z,17.40
2018-12-17T10:25:23.302Z,19.20
2018-12-17T10:26:23.290Z,16.60
2018-12-17T10:27:23.307Z,17.70
2018-12-17T10:28:23.262Z,18.30
2018-12-17T10:29:23.260Z,15.70
2018-12-17T10:30:23.268Z,15.80
2018-12-17T10:31:23.243Z,15.80
2018-12-17T10:32:23.226Z,16.30
2018-12-17T10:33:23.220Z,17.60
2018-12-17T10:34:23.204Z,15.40
2018-12-17T10:35:23.238Z,16.40
2018-12-17T10:36:23.190Z,13.60
2018-12-17T10:37:23.180Z,12.70
2018-12-17T10:38:23.199Z,12.70
2018-12-17T10:39:23.149Z,12.80
2018-12-17T10:40:23.164Z,12.10
2018-12-17T10:41:23.146Z,11.80
2018-12-17T10:42:23.125Z,10.60
2018-12-17T10:43:23.164Z,11.70
2018-12-17T10:44:23.134Z,11.30
2018-12-17T10:45:23.095Z,9.60
2018-12-17T10:46:23.080Z,12.30
2018-12-17T10:47:23.125Z,11.30
2018-12-17T10:48:23.090Z,12.10
2018-12-17T10:49:23.051Z,13.00
2018-12-17T10:50:23.036Z,11.70
2018-12-17T10:51:23.024Z,10.30
2018-12-17T10:52:23.044Z,11.90
2018-12-17T10:53:23.019Z,12.30
2018-12-17T10:54:23.024Z,12.10
2018-12-17T10:55:23.025Z,11.70
2018-12-17T10:56:23.013Z,10.80
2018-12-17T10:57:22.966Z,10.30
2018-12-17T10:58:22.953Z,12.20
2018-12-17T10:59:23.075Z,11.90
2018-12-17T11:00:22.973Z,13.30
2018-12-17T11:01:22.955Z,10.20
2018-12-17T11:02:22.910Z,10.40
2018-12-17T11:03:22.923Z,10.50
2018-12-17T11:04:22.896Z,9.60
2018-12-17T11:05:22.940Z,14.00
2018-12-17T11:06:22.874Z,11.60
2018-12-17T11:07:22.893Z,11.00
2018-12-17T11:08:22.867Z,8.60
2018-12-17T11:09:22.839Z,11.70
2018-12-17T11:10:22.836Z,9.00
2018-12-17T11:11:22.847Z,8.90
2018-12-17T11:12:22.876Z,10.30
2018-12-17T11:13:22.849Z,9.00
2018-12-17T11:14:22.792Z,12.00
2018-12-17T11:15:22.811Z,9.30
2018-12-17T11:16:22.867Z,12.10
2018-12-17T11:17:22.792Z,10.40
2018-12-17T11:18:22.769Z,10.30
2018-12-17T11:19:22.732Z,9.30
2018-12-17T11:20:22.750Z,8.30
2018-12-17T11:21:22.719Z,7.00
2018-12-17T11:22:22.713Z,7.10
2018-12-17T11:23:22.723Z,7.70
2018-12-17T11:24:22.698Z,6.40
2018-12-17T11:25:22.664Z,6.20
2018-12-17T11:26:22.655Z,6.40
2018-12-17T11:27:22.646Z,5.10
2018-12-17T11:28:22.679Z,6.60
2018-12-17T11:29:22.622Z,4.50
2018-12-17T11:30:22.622Z,5.20
2018-12-17T11:31:22.599Z,5.20
2018-12-17T11:32:22.588Z,5.10
2018-12-17T11:33:22.604Z,4.20
2018-12-17T11:34:22.565Z,5.20
2018-12-17T11:35:22.571Z,4.60
2018-12-17T11:36:22.543Z,4.50
2018-12-17T11:37:22.578Z,6.00
2018-12-17T11:38:22.520Z,5.30
2018-12-17T11:39:22.516Z,5.90
2018-12-17T11:40:22.500Z,5.20
2018-12-17T11:41:22.516Z,6.50
2018-12-17T11:42:22.508Z,4.40
2018-12-17T11:43:22.466Z,5.90
2018-12-17T11:44:22.467Z,6.10
2018-12-17T11:45:22.442Z,4.40
2018-12-17T11:46:22.438Z,3.50
2018-12-17T11:47:22.442Z,4.80
2018-12-17T11:48:22.410Z,4.00
2018-12-17T11:49:22.428Z,4.60
2018-12-17T11:50:22.418Z,5.60
2018-12-17T11:51:22.383Z,4.30
2018-12-17T11:52:22.384Z,8.00
2018-12-17T11:53:22.355Z,6.10
2018-12-17T11:54:22.370Z,4.90
2018-12-17T11:55:22.334Z,4.40
2018-12-17T11:56:22.330Z,5.20
2018-12-17T12:00:01.221Z,5.10
2018-12-17T12:00:40.025Z,4.10
2018-12-17T12:01:40.012Z,5.70
2018-12-17T12:02:40.022Z,4.90
2018-12-17T12:03:39.991Z,4.00
2018-12-17T12:04:39.978Z,5.80
2018-12-17T12:05:40.170Z,5.20
2018-12-17T12:06:39.957Z,5.90
2018-12-17T12:07:39.949Z,5.60
2018-12-17T12:08:39.957Z,4.30
2018-12-17T12:09:39.925Z,5.50
2018-12-17T12:10:39.979Z,5.30
2018-12-17T12:11:39.911Z,5.20
2018-12-17T12:12:40.013Z,5.20
2018-12-17T12:13:39.894Z,5.30
2018-12-17T12:14:39.880Z,7.30
2018-12-17T12:15:39.872Z,5.70
2018-12-17T12:16:39.860Z,5.70
2018-12-17T12:17:39.865Z,6.60
2018-12-17T12:18:39.835Z,6.90
2018-12-17T12:19:39.822Z,5.90
2018-12-17T12:20:39.806Z,5.60
2018-12-17T12:21:39.920Z,5.70
2018-12-17T12:22:39.789Z,6.30
2018-12-17T12:23:39.775Z,5.90
2018-12-17T12:24:39.765Z,6.50
2018-12-17T12:25:39.792Z,6.30
2018-12-17T12:26:39.745Z,7.40
2018-12-17T12:27:39.734Z,7.10
2018-12-17T12:28:39.757Z,6.20
2018-12-17T12:29:39.728Z,6.70
2018-12-17T12:30:39.701Z,6.30
2018-12-17T12:31:39.706Z,6.10
2018-12-17T12:32:39.679Z,6.10
2018-12-17T12:33:39.698Z,5.20
2018-12-17T12:34:39.657Z,5.40
2018-12-17T12:35:39.645Z,4.30
2018-12-17T12:36:39.648Z,5.80
2018-12-17T12:37:39.627Z,4.50
2018-12-17T12:38:39.658Z,5.10
2018-12-17T12:39:39.599Z,6.80
2018-12-17T12:40:39.588Z,6.00
2018-12-17T12:41:39.578Z,5.40
2018-12-17T12:42:39.572Z,6.30
2018-12-17T12:43:39.600Z,4.60
2018-12-17T12:44:39.566Z,5.80
2018-12-17T12:45:39.531Z,4.80
2018-12-17T12:46:39.523Z,6.10
2018-12-17T12:47:39.510Z,6.70
2018-12-17T12:48:39.563Z,5.50
2018-12-17T12:49:39.494Z,7.10
2018-12-17T12:50:39.507Z,5.70
2018-12-17T12:51:39.478Z,4.40
2018-12-17T12:52:39.458Z,5.70
2018-12-17T12:53:39.479Z,5.20
2018-12-17T12:54:39.454Z,5.90
2018-12-17T12:55:39.443Z,4.90